createdAt,value
2022-08-05T00:24:36.586Z,17
2022-08-05T00:54:45.156Z,15
2022-08-05T01:24:53.668Z,53
2022-08-05T01:55:03.419Z,286
2022-08-05T02:25:13.046Z,303
2022-08-05T02:55:22.794Z,490
2022-08-05T03:25:34.371Z,639
2022-08-05T03:55:46.976Z,525
2022-08-05T04:25:58.587Z,749
2022-08-05T04:56:14.741Z,810
2022-08-05T05:26:28.032Z,817
2022-08-05T05:56:40.889Z,787
2022-08-05T06:26:53.565Z,797
2022-08-05T06:57:12.734Z,829
2022-08-05T07:27:29.592Z,779
2022-08-05T07:57:47.256Z,302
2022-08-05T08:28:01.669Z,-1
2022-08-05T08:58:25.997Z,135
2022-08-05T09:28:50.910Z,113
2022-08-05T09:58:56.870Z,109
2022-08-05T10:29:13.192Z,106
2022-08-05T10:59:24.090Z,99
2022-08-05T11:29:38.371Z,97
2022-08-05T11:59:48.602Z,94
2022-08-05T12:30:05.970Z,100
2022-08-05T13:00:25.048Z,90
2022-08-05T13:30:31.098Z,85
2022-08-05T14:00:30.211Z,186
2022-08-05T14:30:29.795Z,727
2022-08-05T15:00:36.231Z,985
2022-08-05T15:30:46.035Z,1155
2022-08-05T16:00:53.928Z,1141
2022-08-05T16:31:04.099Z,625
2022-08-05T17:01:13.847Z,530
2022-08-05T17:31:23.857Z,455
2022-08-05T18:01:34.173Z,419
2022-08-05T18:31:53.714Z,538
2022-08-05T19:01:57.815Z,412
2022-08-05T19:31:58.703Z,-1
2022-08-05T20:01:53.327Z,-1
2022-08-05T20:31:37.574Z,-1
2022-08-05T21:01:02.129Z,-1
2022-08-05T21:30:03.755Z,-1
2022-08-05T21:58:34.028Z,0
2022-08-05T22:26:32.503Z,-1
2022-08-05T22:53:58.260Z,-1
2022-08-05T23:20:51.999Z,-1
2022-08-05T23:47:21.220Z,-1
